createdAt,value
2023-04-08T00:01:29.349Z,4.40
2023-04-08T00:06:32.362Z,4.50
2023-04-08T00:11:35.230Z,4.50
2023-04-08T00:16:38.301Z,4.50
2023-04-08T00:21:41.343Z,4.50
2023-04-08T00:26:44.338Z,4.50
2023-04-08T00:31:47.748Z,4.50
2023-04-08T00:36:50.698Z,4.50
2023-04-08T00:41:53.582Z,4.50
2023-04-08T00:46:56.533Z,4.60
2023-04-08T00:52:00.703Z,4.50
2023-04-08T00:57:05.475Z,4.60
2023-04-08T01:02:23.892Z,4.50
2023-04-08T01:07:40.374Z,4.50
2023-04-08T01:13:00.591Z,4.40
2023-04-08T01:18:09.295Z,4.40
2023-04-08T01:24:11.524Z,4.40
2023-04-08T01:29:15.948Z,4.40
2023-04-08T01:34:21.417Z,4.40
2023-04-08T01:39:26.566Z,4.40
2023-04-08T01:44:31.078Z,4.40
2023-04-08T01:49:34.750Z,4.30
2023-04-08T01:54:38.333Z,4.30
2023-04-08T01:59:42.443Z,4.30
2023-04-08T02:04:45.559Z,4.30
2023-04-08T02:09:48.673Z,4.30
2023-04-08T02:14:51.820Z,4.20
2023-04-08T02:20:18.321Z,4.20
2023-04-08T02:25:25.296Z,4.20
2023-04-08T02:30:30.025Z,4.20
2023-04-08T02:35:34.049Z,4.10
2023-04-08T02:40:38.172Z,4.10
2023-04-08T02:45:44.909Z,4.20
2023-04-08T02:50:47.931Z,4.20
2023-04-08T02:55:51.165Z,4.20
2023-04-08T03:00:54.387Z,4.20
2023-04-08T03:05:58.571Z,4.20
2023-04-08T03:11:01.640Z,4.20
2023-04-08T03:16:06.347Z,4.30
2023-04-08T03:21:09.474Z,4.30
2023-04-08T03:26:13.219Z,4.30
2023-04-08T03:31:16.501Z,4.30
2023-04-08T03:36:19.409Z,4.30
2023-04-08T03:41:22.383Z,4.20
2023-04-08T03:46:25.711Z,4.30
2023-04-08T03:51:28.842Z,4.30
2023-04-08T03:56:31.617Z,4.30
2023-04-08T04:01:34.723Z,4.30
2023-04-08T04:06:37.967Z,4.30
2023-04-08T04:11:41.034Z,4.40
2023-04-08T04:16:44.130Z,4.30
2023-04-08T04:21:47.304Z,4.40
2023-04-08T04:26:50.397Z,4.40
2023-04-08T04:31:53.394Z,4.30
2023-04-08T04:36:56.673Z,4.40
2023-04-08T04:41:59.660Z,4.30
2023-04-08T04:47:02.624Z,4.40
2023-04-08T04:52:06.127Z,4.40
2023-04-08T04:57:09.224Z,4.40
2023-04-08T05:02:12.251Z,4.40
2023-04-08T05:07:15.407Z,4.40
2023-04-08T05:12:20.621Z,4.40
2023-04-08T05:17:23.613Z,4.50
2023-04-08T05:22:26.559Z,4.40
2023-04-08T05:27:30.038Z,4.40
2023-04-08T05:32:33.064Z,4.40
2023-04-08T05:37:36.195Z,4.50
2023-04-08T05:42:39.304Z,4.50
2023-04-08T05:47:42.239Z,4.50
2023-04-08T05:52:45.838Z,4.60
2023-04-08T05:57:48.760Z,4.60
2023-04-08T06:02:51.947Z,4.60
2023-04-08T06:07:55.052Z,4.60
2023-04-08T06:12:57.795Z,4.60
2023-04-08T06:18:01.075Z,4.60
2023-04-08T06:23:04.244Z,4.60
2023-04-08T06:28:07.778Z,4.70
2023-04-08T06:33:10.862Z,4.70
2023-04-08T06:38:28.282Z,4.70
2023-04-08T06:43:32.789Z,4.70
2023-04-08T06:48:37.830Z,4.70
2023-04-08T06:53:41.281Z,4.70
2023-04-08T06:58:44.241Z,4.70
2023-04-08T07:03:47.344Z,4.70
2023-04-08T07:08:50.612Z,4.70
2023-04-08T07:13:53.684Z,4.70
2023-04-08T07:18:57.062Z,4.80
2023-04-08T07:24:00.052Z,4.80
2023-04-08T07:29:03.516Z,4.80
2023-04-08T07:34:06.430Z,4.80
2023-04-08T07:39:09.382Z,4.80
2023-04-08T07:44:12.413Z,4.80
2023-04-08T07:49:15.563Z,4.80
2023-04-08T07:54:18.837Z,4.90
2023-04-08T07:59:21.801Z,4.90
2023-04-08T08:04:26.300Z,4.90
2023-04-08T08:09:31.576Z,4.90
2023-04-08T08:14:35.142Z,4.90
2023-04-08T08:19:38.248Z,5.00
2023-04-08T08:24:41.525Z,5.00
2023-04-08T08:29:44.492Z,5.20
2023-04-08T08:34:47.223Z,5.20
2023-04-08T08:39:50.394Z,5.20
2023-04-08T08:44:54.696Z,5.30
2023-04-08T08:49:57.814Z,5.40
2023-04-08T08:55:01.488Z,5.40
2023-04-08T09:00:05.492Z,5.40
2023-04-08T09:05:09.092Z,5.40
2023-04-08T09:10:12.129Z,5.30
2023-04-08T09:15:15.037Z,5.30
2023-04-08T09:20:17.948Z,5.30
2023-04-08T09:25:30.138Z,5.30
2023-04-08T09:30:33.756Z,5.40
2023-04-08T09:35:36.787Z,5.40
2023-04-08T09:40:41.641Z,5.50
2023-04-08T09:45:46.791Z,5.60
2023-04-08T09:50:52.773Z,5.50
2023-04-08T09:55:58.581Z,5.50
2023-04-08T10:01:02.501Z,5.60
2023-04-08T10:06:08.623Z,5.60
2023-04-08T10:11:11.768Z,5.70
2023-04-08T10:16:23.094Z,5.90
2023-04-08T10:21:43.667Z,6.00
2023-04-08T10:26:48.837Z,6.10
2023-04-08T10:31:52.212Z,6.10
2023-04-08T10:36:59.028Z,6.20
2023-04-08T10:42:02.791Z,6.40
2023-04-08T10:47:05.710Z,6.50
2023-04-08T10:52:09.584Z,6.60
2023-04-08T10:57:12.566Z,6.60
2023-04-08T11:02:16.714Z,6.60
2023-04-08T11:07:21.331Z,6.40
2023-04-08T11:12:24.296Z,6.50
2023-04-08T11:17:28.104Z,6.60
2023-04-08T11:22:33.550Z,6.80
2023-04-08T11:27:37.593Z,6.80
2023-04-08T11:32:41.548Z,6.80
2023-04-08T11:37:45.486Z,6.80
2023-04-08T11:42:48.876Z,6.80
2023-04-08T11:47:52.041Z,6.70
2023-04-08T11:52:55.550Z,6.60
2023-04-08T11:58:04.418Z,6.60
2023-04-08T12:03:08.413Z,6.50
2023-04-08T12:08:11.655Z,6.80
2023-04-08T12:13:14.688Z,7.10
2023-04-08T12:18:17.739Z,7.30
2023-04-08T12:23:20.627Z,7.40
2023-04-08T12:28:23.608Z,7.30
2023-04-08T12:33:26.565Z,7.10
2023-04-08T12:38:29.618Z,7.00
2023-04-08T12:43:33.161Z,7.00
2023-04-08T12:48:36.885Z,7.10
2023-04-08T12:53:39.918Z,7.10
2023-04-08T12:58:42.902Z,7.10
2023-04-08T13:03:47.882Z,7.10
2023-04-08T13:08:51.294Z,7.10
2023-04-08T13:13:54.455Z,7.00
2023-04-08T13:18:57.459Z,7.00
2023-04-08T13:24:00.288Z,7.00
2023-04-08T13:29:03.640Z,7.10
2023-04-08T13:34:07.536Z,7.30
2023-04-08T13:39:10.649Z,7.40
2023-04-08T13:44:13.616Z,7.60
2023-04-08T13:49:16.639Z,7.60
2023-04-08T13:54:19.357Z,7.70
2023-04-08T13:59:22.468Z,7.80
2023-04-08T14:04:25.518Z,7.80
2023-04-08T14:09:28.652Z,7.70
2023-04-08T14:14:31.793Z,7.70
2023-04-08T14:19:35.192Z,7.80
2023-04-08T14:24:38.165Z,7.90
2023-04-08T14:29:41.529Z,8.00
2023-04-08T14:34:44.793Z,8.00
2023-04-08T14:39:47.774Z,7.90
2023-04-08T14:44:50.814Z,7.80
2023-04-08T14:49:53.813Z,7.80
2023-04-08T14:54:56.767Z,7.70
2023-04-08T14:59:59.712Z,7.60
2023-04-08T15:05:02.765Z,7.50
2023-04-08T15:10:06.532Z,7.50
2023-04-08T15:15:10.271Z,7.40
2023-04-08T15:20:13.588Z,7.40
2023-04-08T15:25:16.651Z,7.20
2023-04-08T15:30:24.574Z,7.10
2023-04-08T15:35:28.123Z,7.00
2023-04-08T15:40:34.427Z,6.90
2023-04-08T15:45:42.808Z,6.80
2023-04-08T15:50:45.941Z,6.70
2023-04-08T15:55:50.296Z,6.50
2023-04-08T16:00:55.853Z,6.40
2023-04-08T16:05:58.922Z,6.30
2023-04-08T16:11:04.513Z,6.20
2023-04-08T16:16:08.856Z,6.20
2023-04-08T16:21:12.283Z,6.20
2023-04-08T16:26:15.481Z,6.20
2023-04-08T16:31:20.000Z,6.20
2023-04-08T16:36:23.068Z,6.20
2023-04-08T16:41:26.094Z,6.10
2023-04-08T16:46:29.017Z,6.10
2023-04-08T16:51:32.007Z,6.10
2023-04-08T16:56:35.120Z,6.00
2023-04-08T17:01:38.427Z,6.00
2023-04-08T17:06:42.355Z,5.90
2023-04-08T17:11:45.690Z,5.90
2023-04-08T17:16:49.189Z,5.80
2023-04-08T17:21:52.395Z,5.80
2023-04-08T17:26:57.572Z,5.80
2023-04-08T17:32:00.729Z,5.80
2023-04-08T17:37:05.393Z,5.80
2023-04-08T17:42:08.795Z,5.80
2023-04-08T17:47:11.886Z,5.70
2023-04-08T17:52:14.805Z,5.70
2023-04-08T17:57:17.806Z,5.60
2023-04-08T18:02:20.970Z,5.60
2023-04-08T18:07:24.143Z,5.60
2023-04-08T18:12:29.050Z,5.60
2023-04-08T18:17:32.087Z,5.50
2023-04-08T18:22:35.067Z,5.50
2023-04-08T18:27:38.213Z,5.40
2023-04-08T18:32:41.302Z,5.40
2023-04-08T18:37:44.268Z,5.40
2023-04-08T18:42:47.224Z,5.30
2023-04-08T18:47:50.409Z,5.30
2023-04-08T18:52:53.919Z,5.20
2023-04-08T18:57:56.900Z,5.10
2023-04-08T19:03:00.150Z,5.10
2023-04-08T19:08:03.427Z,5.00
2023-04-08T19:13:06.406Z,5.00
2023-04-08T19:18:09.899Z,4.90
2023-04-08T19:23:14.126Z,4.90
2023-04-08T19:28:17.177Z,4.90
2023-04-08T19:33:21.125Z,4.90
2023-04-08T19:38:26.004Z,4.90
2023-04-08T19:43:32.084Z,4.90
2023-04-08T19:48:35.099Z,4.90
2023-04-08T19:53:37.945Z,5.00
2023-04-08T19:58:41.276Z,5.00
2023-04-08T20:03:50.640Z,5.00
2023-04-08T20:08:54.926Z,4.90
2023-04-08T20:13:58.098Z,4.90
2023-04-08T20:19:00.930Z,5.00
2023-04-08T20:24:03.900Z,5.00
2023-04-08T20:29:07.098Z,5.10
2023-04-08T20:34:10.743Z,5.10
2023-04-08T20:39:13.704Z,5.10
2023-04-08T20:44:17.905Z,5.10
2023-04-08T20:49:21.179Z,5.10
2023-04-08T20:54:25.165Z,5.10
2023-04-08T20:59:28.327Z,5.10
2023-04-08T21:04:31.715Z,5.00
2023-04-08T21:09:34.768Z,5.00
2023-04-08T21:14:37.923Z,4.90
2023-04-08T21:19:42.594Z,4.90
2023-04-08T21:24:45.730Z,4.90
2023-04-08T21:29:52.694Z,4.90
2023-04-08T21:34:55.826Z,4.90
2023-04-08T21:39:59.165Z,4.90
2023-04-08T21:45:02.271Z,4.90
2023-04-08T21:50:06.354Z,4.90
2023-04-08T21:55:09.891Z,4.90
2023-04-08T22:00:13.765Z,4.90
2023-04-08T22:05:16.675Z,4.90
2023-04-08T22:10:19.825Z,4.80
2023-04-08T22:15:23.132Z,4.70
2023-04-08T22:20:26.285Z,4.70
2023-04-08T22:25:29.240Z,4.70
2023-04-08T22:30:32.041Z,4.70
2023-04-08T22:35:36.136Z,4.70
2023-04-08T22:40:39.556Z,4.70
2023-04-08T22:45:42.866Z,4.70
2023-04-08T22:50:45.867Z,4.70
2023-04-08T22:55:49.133Z,4.80
2023-04-08T23:00:52.231Z,4.80
2023-04-08T23:05:55.819Z,4.90
2023-04-08T23:10:58.886Z,4.90
2023-04-08T23:16:02.519Z,4.90
2023-04-08T23:21:06.883Z,4.90
2023-04-08T23:26:21.348Z,5.00
2023-04-08T23:31:24.315Z,4.90
2023-04-08T23:36:27.772Z,4.90
2023-04-08T23:41:31.446Z,4.90
2023-04-08T23:46:34.534Z,4.90
2023-04-08T23:51:39.019Z,4.90
2023-04-08T23:56:42.353Z,4.90
